Gaberone/Khama, Botswana
Current Conditions -  °F | °C
As of 10:00 AM on Sunday 21 Dec 2014 (Local Time) from FBSK Reporting Station
Clear Clear  
Wind Chill: 84°   Ceiling: Unl
Heat Index: 84°   Visibility: 6mi
Dew Point: 55°   Wind: 8mph
Humidity: 37%   Direction: 30°NNE
Pressure: 30.03"   Gusts: NA
Location:  24.22°S, 25.92°E
Report Text: FBSK 210800Z 03007KT 350V100 CAVOK 29/13 Q1017 NOSIG
Loading
Personal Weather Stations






























Interactive Weather Map New forecast layout! Learn more

10-Day Weather Forecast

Advertisements
Track Severe Weather on mobile